sensor_id;sensor_type;location;lat;lon;timestamp;P1;durP1;ratioP1;P2;durP2;ratioP2
7473;SDS011;3778;42.572;23.426;2022-09-27T00:01:25;6.97;;;4.57;;
7473;SDS011;3778;42.572;23.426;2022-09-27T00:03:53;5.20;;;4.70;;
7473;SDS011;3778;42.572;23.426;2022-09-27T00:06:22;7.57;;;5.20;;
7473;SDS011;3778;42.572;23.426;2022-09-27T00:08:50;6.23;;;4.63;;
7473;SDS011;3778;42.572;23.426;2022-09-27T00:11:19;5.50;;;3.73;;
7473;SDS011;3778;42.572;23.426;2022-09-27T00:13:52;3.70;;;3.30;;
7473;SDS011;3778;42.572;23.426;2022-09-27T00:16:20;3.87;;;3.47;;
7473;SDS011;3778;42.572;23.426;2022-09-27T00:18:47;6.50;;;3.40;;
7473;SDS011;3778;42.572;23.426;2022-09-27T00:21:14;8.77;;;3.13;;
7473;SDS011;3778;42.572;23.426;2022-09-27T00:23:41;3.90;;;3.10;;
7473;SDS011;3778;42.572;23.426;2022-09-27T00:26:09;4.97;;;3.97;;
7473;SDS011;3778;42.572;23.426;2022-09-27T00:28:38;5.77;;;3.13;;
7473;SDS011;3778;42.572;23.426;2022-09-27T00:31:11;4.07;;;3.10;;
7473;SDS011;3778;42.572;23.426;2022-09-27T00:33:44;4.23;;;3.20;;
7473;SDS011;3778;42.572;23.426;2022-09-27T00:36:11;3.27;;;2.90;;
7473;SDS011;3778;42.572;23.426;2022-09-27T00:38:39;3.57;;;2.77;;
7473;SDS011;3778;42.572;23.426;2022-09-27T00:41:05;3.50;;;3.20;;
7473;SDS011;3778;42.572;23.426;2022-09-27T00:43:41;3.30;;;3.00;;
7473;SDS011;3778;42.572;23.426;2022-09-27T00:46:12;4.83;;;3.10;;
7473;SDS011;3778;42.572;23.426;2022-09-27T00:48:44;4.63;;;3.57;;
7473;SDS011;3778;42.572;23.426;2022-09-27T00:51:12;5.67;;;3.43;;
7473;SDS011;3778;42.572;23.426;2022-09-27T00:53:41;4.43;;;3.10;;
7473;SDS011;3778;42.572;23.426;2022-09-27T00:56:13;3.60;;;3.23;;
7473;SDS011;3778;42.572;23.426;2022-09-27T00:58:45;8.77;;;3.20;;
7473;SDS011;3778;42.572;23.426;2022-09-27T01:01:17;6.27;;;3.97;;
7473;SDS011;3778;42.572;23.426;2022-09-27T01:03:45;6.03;;;4.13;;
7473;SDS011;3778;42.572;23.426;2022-09-27T01:06:17;7.30;;;5.03;;
7473;SDS011;3778;42.572;23.426;2022-09-27T01:08:46;6.53;;;5.13;;
7473;SDS011;3778;42.572;23.426;2022-09-27T01:11:13;8.50;;;5.00;;
7473;SDS011;3778;42.572;23.426;2022-09-27T01:13:50;10.20;;;8.63;;
7473;SDS011;3778;42.572;23.426;2022-09-27T01:16:31;10.73;;;7.53;;
7473;SDS011;3778;42.572;23.426;2022-09-27T01:19:08;15.60;;;9.07;;
7473;SDS011;3778;42.572;23.426;2022-09-27T01:21:50;7.00;;;5.67;;
7473;SDS011;3778;42.572;23.426;2022-09-27T01:24:46;6.27;;;5.17;;
7473;SDS011;3778;42.572;23.426;2022-09-27T01:30:31;6.67;;;4.90;;
7473;SDS011;3778;42.572;23.426;2022-09-27T01:33:12;5.20;;;4.53;;
7473;SDS011;3778;42.572;23.426;2022-09-27T01:35:51;6.60;;;5.07;;
7473;SDS011;3778;42.572;23.426;2022-09-27T01:38:32;7.03;;;4.93;;
7473;SDS011;3778;42.572;23.426;2022-09-27T01:41:09;5.20;;;4.30;;
7473;SDS011;3778;42.572;23.426;2022-09-27T01:43:45;5.43;;;4.90;;
7473;SDS011;3778;42.572;23.426;2022-09-27T01:46:21;7.00;;;4.67;;
7473;SDS011;3778;42.572;23.426;2022-09-27T01:48:51;7.53;;;5.07;;
7473;SDS011;3778;42.572;23.426;2022-09-27T01:51:21;6.70;;;5.23;;
7473;SDS011;3778;42.572;23.426;2022-09-27T01:53:54;5.73;;;5.10;;
7473;SDS011;3778;42.572;23.426;2022-09-27T01:56:29;8.23;;;5.23;;
7473;SDS011;3778;42.572;23.426;2022-09-27T01:59:01;6.23;;;5.20;;
7473;SDS011;3778;42.572;23.426;2022-09-27T02:01:34;6.27;;;4.93;;
7473;SDS011;3778;42.572;23.426;2022-09-27T02:04:04;6.93;;;5.73;;
7473;SDS011;3778;42.572;23.426;2022-09-27T02:06:36;6.47;;;5.80;;
7473;SDS011;3778;42.572;23.426;2022-09-27T02:09:07;6.60;;;5.50;;
7473;SDS011;3778;42.572;23.426;2022-09-27T02:11:38;8.43;;;5.30;;
7473;SDS011;3778;42.572;23.426;2022-09-27T02:14:10;6.73;;;5.17;;
7473;SDS011;3778;42.572;23.426;2022-09-27T02:16:45;6.10;;;5.13;;
7473;SDS011;3778;42.572;23.426;2022-09-27T02:19:17;7.17;;;5.33;;
7473;SDS011;3778;42.572;23.426;2022-09-27T02:21:54;7.03;;;5.90;;
7473;SDS011;3778;42.572;23.426;2022-09-27T02:24:29;6.43;;;5.33;;
7473;SDS011;3778;42.572;23.426;2022-09-27T02:27:03;6.37;;;5.70;;
7473;SDS011;3778;42.572;23.426;2022-09-27T02:29:36;6.93;;;5.90;;
7473;SDS011;3778;42.572;23.426;2022-09-27T02:32:09;9.20;;;6.87;;
7473;SDS011;3778;42.572;23.426;2022-09-27T02:34:35;9.73;;;6.63;;
7473;SDS011;3778;42.572;23.426;2022-09-27T02:37:05;10.20;;;7.07;;
7473;SDS011;3778;42.572;23.426;2022-09-27T02:39:32;11.20;;;7.13;;
7473;SDS011;3778;42.572;23.426;2022-09-27T02:41:58;8.40;;;6.73;;
7473;SDS011;3778;42.572;23.426;2022-09-27T02:44:25;9.77;;;7.23;;
7473;SDS011;3778;42.572;23.426;2022-09-27T02:46:58;8.47;;;6.50;;
7473;SDS011;3778;42.572;23.426;2022-09-27T02:49:42;7.93;;;6.57;;
7473;SDS011;3778;42.572;23.426;2022-09-27T02:52:21;9.43;;;7.30;;
7473;SDS011;3778;42.572;23.426;2022-09-27T02:54:58;7.27;;;6.33;;
7473;SDS011;3778;42.572;23.426;2022-09-27T02:57:35;8.73;;;7.60;;
7473;SDS011;3778;42.572;23.426;2022-09-27T03:00:15;9.10;;;7.27;;
7473;SDS011;3778;42.572;23.426;2022-09-27T03:02:48;8.13;;;6.93;;
7473;SDS011;3778;42.572;23.426;2022-09-27T03:05:23;10.53;;;7.93;;
7473;SDS011;3778;42.572;23.426;2022-09-27T03:07:52;8.47;;;7.33;;
7473;SDS011;3778;42.572;23.426;2022-09-27T03:10:20;14.40;;;7.30;;
7473;SDS011;3778;42.572;23.426;2022-09-27T03:12:49;14.23;;;8.47;;
7473;SDS011;3778;42.572;23.426;2022-09-27T03:15:16;11.10;;;8.80;;
7473;SDS011;3778;42.572;23.426;2022-09-27T03:17:43;8.40;;;7.50;;
7473;SDS011;3778;42.572;23.426;2022-09-27T03:20:10;9.73;;;7.90;;
7473;SDS011;3778;42.572;23.426;2022-09-27T03:22:38;9.03;;;7.97;;
7473;SDS011;3778;42.572;23.426;2022-09-27T03:25:05;11.50;;;8.00;;
7473;SDS011;3778;42.572;23.426;2022-09-27T03:27:32;8.43;;;7.33;;
7473;SDS011;3778;42.572;23.426;2022-09-27T03:29:59;7.83;;;7.03;;
7473;SDS011;3778;42.572;23.426;2022-09-27T03:32:26;8.90;;;7.67;;
7473;SDS011;3778;42.572;23.426;2022-09-27T03:34:53;9.00;;;7.60;;
7473;SDS011;3778;42.572;23.426;2022-09-27T03:37:20;10.33;;;8.23;;
7473;SDS011;3778;42.572;23.426;2022-09-27T03:39:48;9.83;;;8.13;;
7473;SDS011;3778;42.572;23.426;2022-09-27T03:42:15;10.43;;;9.00;;
7473;SDS011;3778;42.572;23.426;2022-09-27T03:44:42;10.90;;;8.47;;
7473;SDS011;3778;42.572;23.426;2022-09-27T03:47:09;10.80;;;8.47;;
7473;SDS011;3778;42.572;23.426;2022-09-27T03:49:36;9.73;;;7.93;;
7473;SDS011;3778;42.572;23.426;2022-09-27T03:52:02;7.63;;;6.83;;
7473;SDS011;3778;42.572;23.426;2022-09-27T03:54:29;8.80;;;6.63;;
7473;SDS011;3778;42.572;23.426;2022-09-27T03:56:58;7.20;;;6.47;;
7473;SDS011;3778;42.572;23.426;2022-09-27T03:59:24;7.20;;;6.17;;
7473;SDS011;3778;42.572;23.426;2022-09-27T04:01:51;7.53;;;6.47;;
7473;SDS011;3778;42.572;23.426;2022-09-27T04:04:18;6.67;;;6.00;;
7473;SDS011;3778;42.572;23.426;2022-09-27T04:06:45;9.97;;;5.43;;
7473;SDS011;3778;42.572;23.426;2022-09-27T04:09:13;7.53;;;5.40;;
7473;SDS011;3778;42.572;23.426;2022-09-27T04:11:40;6.27;;;4.93;;
7473;SDS011;3778;42.572;23.426;2022-09-27T04:14:08;9.73;;;5.63;;
7473;SDS011;3778;42.572;23.426;2022-09-27T04:16:37;6.37;;;5.23;;
7473;SDS011;3778;42.572;23.426;2022-09-27T04:19:04;10.63;;;7.70;;
7473;SDS011;3778;42.572;23.426;2022-09-27T04:21:31;9.03;;;8.00;;
7473;SDS011;3778;42.572;23.426;2022-09-27T04:23:58;13.77;;;8.33;;
7473;SDS011;3778;42.572;23.426;2022-09-27T04:26:25;11.43;;;7.10;;
7473;SDS011;3778;42.572;23.426;2022-09-27T04:28:52;8.90;;;7.43;;
7473;SDS011;3778;42.572;23.426;2022-09-27T04:31:20;11.37;;;6.60;;
7473;SDS011;3778;42.572;23.426;2022-09-27T04:33:47;9.80;;;6.23;;
7473;SDS011;3778;42.572;23.426;2022-09-27T04:36:14;9.87;;;7.00;;
7473;SDS011;3778;42.572;23.426;2022-09-27T04:38:52;8.97;;;7.10;;
7473;SDS011;3778;42.572;23.426;2022-09-27T04:41:20;9.90;;;7.53;;
7473;SDS011;3778;42.572;23.426;2022-09-27T04:43:48;9.57;;;6.83;;
7473;SDS011;3778;42.572;23.426;2022-09-27T04:46:15;7.67;;;6.50;;
7473;SDS011;3778;42.572;23.426;2022-09-27T04:48:43;8.87;;;7.47;;
7473;SDS011;3778;42.572;23.426;2022-09-27T04:51:10;11.87;;;8.53;;
7473;SDS011;3778;42.572;23.426;2022-09-27T04:53:40;16.97;;;9.37;;
7473;SDS011;3778;42.572;23.426;2022-09-27T04:56:07;11.83;;;9.33;;
7473;SDS011;3778;42.572;23.426;2022-09-27T04:58:33;12.83;;;9.97;;
7473;SDS011;3778;42.572;23.426;2022-09-27T05:01:00;13.00;;;9.57;;
7473;SDS011;3778;42.572;23.426;2022-09-27T05:03:28;15.10;;;11.17;;
7473;SDS011;3778;42.572;23.426;2022-09-27T05:05:56;15.37;;;10.53;;
7473;SDS011;3778;42.572;23.426;2022-09-27T05:08:23;20.57;;;14.37;;
7473;SDS011;3778;42.572;23.426;2022-09-27T05:10:50;17.60;;;12.97;;
7473;SDS011;3778;42.572;23.426;2022-09-27T05:13:17;23.27;;;14.53;;
7473;SDS011;3778;42.572;23.426;2022-09-27T05:15:44;21.67;;;14.90;;
7473;SDS011;3778;42.572;23.426;2022-09-27T05:18:11;22.83;;;14.33;;
7473;SDS011;3778;42.572;23.426;2022-09-27T05:20:38;20.90;;;15.43;;
7473;SDS011;3778;42.572;23.426;2022-09-27T05:23:06;23.70;;;15.70;;
7473;SDS011;3778;42.572;23.426;2022-09-27T05:25:33;23.87;;;15.33;;
7473;SDS011;3778;42.572;23.426;2022-09-27T05:28:00;23.10;;;16.33;;
7473;SDS011;3778;42.572;23.426;2022-09-27T05:30:27;25.13;;;17.23;;
7473;SDS011;3778;42.572;23.426;2022-09-27T05:32:54;25.53;;;17.00;;
7473;SDS011;3778;42.572;23.426;2022-09-27T05:35:21;27.17;;;17.97;;
7473;SDS011;3778;42.572;23.426;2022-09-27T05:37:51;24.37;;;16.73;;
7473;SDS011;3778;42.572;23.426;2022-09-27T05:40:20;27.37;;;17.47;;
7473;SDS011;3778;42.572;23.426;2022-09-27T05:42:48;30.10;;;18.87;;
7473;SDS011;3778;42.572;23.426;2022-09-27T05:45:16;24.73;;;16.50;;
7473;SDS011;3778;42.572;23.426;2022-09-27T05:47:43;24.23;;;15.57;;
7473;SDS011;3778;42.572;23.426;2022-09-27T05:50:17;23.00;;;14.53;;
7473;SDS011;3778;42.572;23.426;2022-09-27T05:52:44;25.87;;;14.87;;
7473;SDS011;3778;42.572;23.426;2022-09-27T05:55:10;17.27;;;12.60;;
7473;SDS011;3778;42.572;23.426;2022-09-27T05:57:39;19.13;;;13.27;;
7473;SDS011;3778;42.572;23.426;2022-09-27T06:00:06;19.27;;;13.10;;
7473;SDS011;3778;42.572;23.426;2022-09-27T06:02:35;15.90;;;11.33;;
7473;SDS011;3778;42.572;23.426;2022-09-27T06:05:02;15.10;;;10.97;;
7473;SDS011;3778;42.572;23.426;2022-09-27T06:07:29;18.97;;;10.63;;
7473;SDS011;3778;42.572;23.426;2022-09-27T06:09:56;15.00;;;10.87;;
7473;SDS011;3778;42.572;23.426;2022-09-27T06:12:23;11.83;;;10.23;;
7473;SDS011;3778;42.572;23.426;2022-09-27T06:14:51;15.37;;;10.20;;
7473;SDS011;3778;42.572;23.426;2022-09-27T06:17:18;19.47;;;11.17;;
7473;SDS011;3778;42.572;23.426;2022-09-27T06:19:45;12.90;;;9.83;;
7473;SDS011;3778;42.572;23.426;2022-09-27T06:22:13;14.30;;;10.53;;
7473;SDS011;3778;42.572;23.426;2022-09-27T06:24:40;12.33;;;9.43;;
7473;SDS011;3778;42.572;23.426;2022-09-27T06:27:07;22.17;;;11.50;;
7473;SDS011;3778;42.572;23.426;2022-09-27T06:29:34;12.77;;;9.53;;
7473;SDS011;3778;42.572;23.426;2022-09-27T06:32:03;13.53;;;9.67;;
7473;SDS011;3778;42.572;23.426;2022-09-27T06:34:30;10.53;;;8.30;;
7473;SDS011;3778;42.572;23.426;2022-09-27T06:36:57;12.00;;;9.60;;
7473;SDS011;3778;42.572;23.426;2022-09-27T06:39:24;12.73;;;9.13;;
7473;SDS011;3778;42.572;23.426;2022-09-27T06:41:52;10.00;;;7.97;;
7473;SDS011;3778;42.572;23.426;2022-09-27T06:44:22;10.63;;;8.63;;
7473;SDS011;3778;42.572;23.426;2022-09-27T06:46:49;13.90;;;9.47;;
7473;SDS011;3778;42.572;23.426;2022-09-27T06:49:18;12.50;;;8.93;;
7473;SDS011;3778;42.572;23.426;2022-09-27T06:51:46;12.53;;;8.47;;
7473;SDS011;3778;42.572;23.426;2022-09-27T07:26:08;8.97;;;8.07;;
7473;SDS011;3778;42.572;23.426;2022-09-27T07:28:35;9.40;;;7.70;;
7473;SDS011;3778;42.572;23.426;2022-09-27T07:31:05;8.37;;;7.43;;
7473;SDS011;3778;42.572;23.426;2022-09-27T07:33:32;10.27;;;8.00;;
7473;SDS011;3778;42.572;23.426;2022-09-27T07:36:00;9.67;;;7.50;;
7473;SDS011;3778;42.572;23.426;2022-09-27T07:38:32;10.53;;;7.30;;
7473;SDS011;3778;42.572;23.426;2022-09-27T07:41:04;9.90;;;7.30;;
7473;SDS011;3778;42.572;23.426;2022-09-27T07:43:32;8.40;;;6.97;;
7473;SDS011;3778;42.572;23.426;2022-09-27T07:45:59;9.03;;;7.13;;
7473;SDS011;3778;42.572;23.426;2022-09-27T07:48:26;10.07;;;6.90;;
7473;SDS011;3778;42.572;23.426;2022-09-27T07:50:53;11.57;;;7.70;;
7473;SDS011;3778;42.572;23.426;2022-09-27T07:53:20;7.70;;;6.90;;
7473;SDS011;3778;42.572;23.426;2022-09-27T07:55:48;9.23;;;7.20;;
7473;SDS011;3778;42.572;23.426;2022-09-27T07:58:17;10.00;;;7.20;;
7473;SDS011;3778;42.572;23.426;2022-09-27T08:00:45;10.13;;;7.83;;
7473;SDS011;3778;42.572;23.426;2022-09-27T08:03:13;8.97;;;6.60;;
7473;SDS011;3778;42.572;23.426;2022-09-27T08:05:41;7.50;;;6.67;;
7473;SDS011;3778;42.572;23.426;2022-09-27T08:08:08;10.63;;;6.67;;
7473;SDS011;3778;42.572;23.426;2022-09-27T08:10:35;8.27;;;6.50;;
7473;SDS011;3778;42.572;23.426;2022-09-27T08:13:04;7.23;;;6.17;;
7473;SDS011;3778;42.572;23.426;2022-09-27T08:15:31;6.80;;;6.10;;
7473;SDS011;3778;42.572;23.426;2022-09-27T08:18:01;11.47;;;7.00;;
7473;SDS011;3778;42.572;23.426;2022-09-27T08:20:28;7.83;;;6.80;;
7473;SDS011;3778;42.572;23.426;2022-09-27T08:22:55;9.13;;;7.07;;
7473;SDS011;3778;42.572;23.426;2022-09-27T08:25:21;10.73;;;8.20;;
7473;SDS011;3778;42.572;23.426;2022-09-27T08:27:53;10.73;;;7.20;;
7473;SDS011;3778;42.572;23.426;2022-09-27T08:30:21;36.00;;;18.10;;
7473;SDS011;3778;42.572;23.426;2022-09-27T08:32:48;29.83;;;18.37;;
7473;SDS011;3778;42.572;23.426;2022-09-27T08:35:16;29.93;;;19.80;;
7473;SDS011;3778;42.572;23.426;2022-09-27T08:37:43;32.40;;;19.40;;
7473;SDS011;3778;42.572;23.426;2022-09-27T08:40:18;28.03;;;20.07;;
7473;SDS011;3778;42.572;23.426;2022-09-27T08:42:49;33.80;;;23.43;;
7473;SDS011;3778;42.572;23.426;2022-09-27T08:45:27;37.37;;;23.37;;
7473;SDS011;3778;42.572;23.426;2022-09-27T08:47:59;42.23;;;24.87;;
7473;SDS011;3778;42.572;23.426;2022-09-27T08:50:29;36.83;;;23.43;;
7473;SDS011;3778;42.572;23.426;2022-09-27T08:52:59;57.30;;;31.40;;
7473;SDS011;3778;42.572;23.426;2022-09-27T08:55:31;31.03;;;22.87;;
7473;SDS011;3778;42.572;23.426;2022-09-27T08:58:03;37.53;;;24.00;;
7473;SDS011;3778;42.572;23.426;2022-09-27T09:00:37;31.87;;;22.27;;
7473;SDS011;3778;42.572;23.426;2022-09-27T09:03:05;26.13;;;17.37;;
7473;SDS011;3778;42.572;23.426;2022-09-27T09:05:43;22.27;;;16.53;;
7473;SDS011;3778;42.572;23.426;2022-09-27T09:08:22;27.27;;;16.93;;
7473;SDS011;3778;42.572;23.426;2022-09-27T09:10:58;31.50;;;18.77;;
7473;SDS011;3778;42.572;23.426;2022-09-27T09:14:04;32.70;;;22.63;;
7473;SDS011;3778;42.572;23.426;2022-09-27T09:16:43;30.87;;;21.30;;
7473;SDS011;3778;42.572;23.426;2022-09-27T09:19:22;17.90;;;13.97;;
7473;SDS011;3778;42.572;23.426;2022-09-27T09:22:08;18.60;;;13.50;;
7473;SDS011;3778;42.572;23.426;2022-09-27T09:24:42;15.70;;;11.37;;
7473;SDS011;3778;42.572;23.426;2022-09-27T09:27:21;12.47;;;10.03;;
7473;SDS011;3778;42.572;23.426;2022-09-27T09:30:00;13.27;;;9.70;;
7473;SDS011;3778;42.572;23.426;2022-09-27T09:32:35;13.40;;;10.23;;
7473;SDS011;3778;42.572;23.426;2022-09-27T09:35:11;26.60;;;16.13;;
7473;SDS011;3778;42.572;23.426;2022-09-27T09:37:43;26.00;;;17.73;;
7473;SDS011;3778;42.572;23.426;2022-09-27T09:40:16;15.43;;;10.73;;
7473;SDS011;3778;42.572;23.426;2022-09-27T09:42:48;19.40;;;15.37;;
7473;SDS011;3778;42.572;23.426;2022-09-27T09:45:21;21.07;;;15.83;;
7473;SDS011;3778;42.572;23.426;2022-09-27T09:47:50;19.73;;;14.50;;
7473;SDS011;3778;42.572;23.426;2022-09-27T09:50:23;21.53;;;13.83;;
7473;SDS011;3778;42.572;23.426;2022-09-27T09:52:55;20.40;;;14.67;;
7473;SDS011;3778;42.572;23.426;2022-09-27T09:55:25;23.43;;;17.27;;
7473;SDS011;3778;42.572;23.426;2022-09-27T09:58:01;21.50;;;15.67;;
7473;SDS011;3778;42.572;23.426;2022-09-27T10:00:38;23.33;;;15.90;;
7473;SDS011;3778;42.572;23.426;2022-09-27T10:03:06;21.43;;;16.40;;
7473;SDS011;3778;42.572;23.426;2022-09-27T10:05:32;24.87;;;17.00;;
7473;SDS011;3778;42.572;23.426;2022-09-27T10:08:02;25.40;;;16.30;;
7473;SDS011;3778;42.572;23.426;2022-09-27T10:10:32;24.80;;;15.93;;
7473;SDS011;3778;42.572;23.426;2022-09-27T10:13:00;22.77;;;15.97;;
7473;SDS011;3778;42.572;23.426;2022-09-27T10:15:29;27.03;;;17.93;;
7473;SDS011;3778;42.572;23.426;2022-09-27T10:17:57;28.77;;;20.07;;
7473;SDS011;3778;42.572;23.426;2022-09-27T10:20:27;34.10;;;20.30;;
7473;SDS011;3778;42.572;23.426;2022-09-27T10:22:58;24.60;;;18.10;;
7473;SDS011;3778;42.572;23.426;2022-09-27T10:25:44;23.87;;;16.10;;
7473;SDS011;3778;42.572;23.426;2022-09-27T10:28:25;23.97;;;17.67;;
7473;SDS011;3778;42.572;23.426;2022-09-27T10:30:57;28.40;;;18.13;;
7473;SDS011;3778;42.572;23.426;2022-09-27T10:33:26;26.33;;;18.27;;
7473;SDS011;3778;42.572;23.426;2022-09-27T10:35:55;25.63;;;18.70;;
7473;SDS011;3778;42.572;23.426;2022-09-27T10:38:25;23.73;;;16.73;;
7473;SDS011;3778;42.572;23.426;2022-09-27T10:40:54;27.00;;;18.37;;
7473;SDS011;3778;42.572;23.426;2022-09-27T10:43:29;23.50;;;16.93;;
7473;SDS011;3778;42.572;23.426;2022-09-27T10:45:59;22.80;;;15.63;;
7473;SDS011;3778;42.572;23.426;2022-09-27T10:48:30;24.27;;;17.20;;
7473;SDS011;3778;42.572;23.426;2022-09-27T10:50:57;21.80;;;15.87;;
7473;SDS011;3778;42.572;23.426;2022-09-27T10:53:27;19.43;;;14.97;;
7473;SDS011;3778;42.572;23.426;2022-09-27T10:55:56;18.60;;;13.50;;
7473;SDS011;3778;42.572;23.426;2022-09-27T10:58:24;22.33;;;12.53;;
7473;SDS011;3778;42.572;23.426;2022-09-27T11:00:54;19.70;;;11.90;;
7473;SDS011;3778;42.572;23.426;2022-09-27T11:03:25;15.50;;;10.53;;
7473;SDS011;3778;42.572;23.426;2022-09-27T11:05:53;14.87;;;10.83;;
7473;SDS011;3778;42.572;23.426;2022-09-27T11:08:24;13.50;;;9.87;;
7473;SDS011;3778;42.572;23.426;2022-09-27T11:11:04;13.37;;;10.37;;
7473;SDS011;3778;42.572;23.426;2022-09-27T11:13:32;13.10;;;9.63;;
7473;SDS011;3778;42.572;23.426;2022-09-27T11:16:14;10.00;;;7.40;;
7473;SDS011;3778;42.572;23.426;2022-09-27T11:18:53;9.27;;;6.60;;
7473;SDS011;3778;42.572;23.426;2022-09-27T11:21:30;11.10;;;7.87;;
7473;SDS011;3778;42.572;23.426;2022-09-27T11:24:10;12.33;;;8.40;;
7473;SDS011;3778;42.572;23.426;2022-09-27T11:26:52;10.23;;;7.47;;
7473;SDS011;3778;42.572;23.426;2022-09-27T11:29:32;8.60;;;6.47;;
7473;SDS011;3778;42.572;23.426;2022-09-27T11:32:13;4.07;;;3.70;;
7473;SDS011;3778;42.572;23.426;2022-09-27T11:34:56;3.57;;;3.13;;
7473;SDS011;3778;42.572;23.426;2022-09-27T11:37:36;2.83;;;2.53;;
7473;SDS011;3778;42.572;23.426;2022-09-27T11:40:17;5.60;;;2.70;;
7473;SDS011;3778;42.572;23.426;2022-09-27T11:45:51;8.93;;;8.03;;
7473;SDS011;3778;42.572;23.426;2022-09-27T11:48:26;9.57;;;8.13;;
7473;SDS011;3778;42.572;23.426;2022-09-27T11:51:05;8.60;;;7.07;;
7473;SDS011;3778;42.572;23.426;2022-09-27T11:53:45;8.93;;;6.80;;
7473;SDS011;3778;42.572;23.426;2022-09-27T11:56:25;8.17;;;7.37;;
7473;SDS011;3778;42.572;23.426;2022-09-27T11:59:04;10.23;;;7.33;;
7473;SDS011;3778;42.572;23.426;2022-09-27T12:01:48;8.83;;;7.40;;
7473;SDS011;3778;42.572;23.426;2022-09-27T12:04:26;8.97;;;6.00;;
7473;SDS011;3778;42.572;23.426;2022-09-27T12:07:10;11.43;;;7.63;;
7473;SDS011;3778;42.572;23.426;2022-09-27T12:09:46;8.87;;;6.50;;
7473;SDS011;3778;42.572;23.426;2022-09-27T12:12:17;6.80;;;5.80;;
7473;SDS011;3778;42.572;23.426;2022-09-27T12:14:47;9.73;;;6.77;;
7473;SDS011;3778;42.572;23.426;2022-09-27T12:17:18;8.93;;;6.80;;
7473;SDS011;3778;42.572;23.426;2022-09-27T12:19:50;8.20;;;6.67;;
7473;SDS011;3778;42.572;23.426;2022-09-27T12:22:20;7.47;;;6.23;;
7473;SDS011;3778;42.572;23.426;2022-09-27T12:24:53;7.90;;;6.07;;
7473;SDS011;3778;42.572;23.426;2022-09-27T12:27:23;6.87;;;6.10;;
7473;SDS011;3778;42.572;23.426;2022-09-27T12:30:00;10.90;;;6.30;;
7473;SDS011;3778;42.572;23.426;2022-09-27T12:32:29;9.50;;;7.00;;
7473;SDS011;3778;42.572;23.426;2022-09-27T12:35:03;6.80;;;6.10;;
7473;SDS011;3778;42.572;23.426;2022-09-27T12:37:36;8.37;;;6.27;;
7473;SDS011;3778;42.572;23.426;2022-09-27T12:40:13;6.37;;;5.47;;
7473;SDS011;3778;42.572;23.426;2022-09-27T12:42:46;6.90;;;5.83;;
7473;SDS011;3778;42.572;23.426;2022-09-27T12:45:16;8.23;;;4.67;;
7473;SDS011;3778;42.572;23.426;2022-09-27T12:47:55;8.77;;;4.93;;
7473;SDS011;3778;42.572;23.426;2022-09-27T12:50:32;6.77;;;4.50;;
7473;SDS011;3778;42.572;23.426;2022-09-27T12:53:04;5.20;;;4.67;;
7473;SDS011;3778;42.572;23.426;2022-09-27T12:55:41;6.17;;;4.50;;
7473;SDS011;3778;42.572;23.426;2022-09-27T12:58:26;5.00;;;4.50;;
7473;SDS011;3778;42.572;23.426;2022-09-27T13:01:09;4.22;;;3.78;;
7473;SDS011;3778;42.572;23.426;2022-09-27T13:03:50;3.75;;;3.00;;
7473;SDS011;3778;42.572;23.426;2022-09-27T13:06:34;4.18;;;2.83;;
7473;SDS011;3778;42.572;23.426;2022-09-27T13:12:19;2.30;;;2.00;;
7473;SDS011;3778;42.572;23.426;2022-09-27T13:14:56;3.03;;;2.10;;
7473;SDS011;3778;42.572;23.426;2022-09-27T13:17:33;1.97;;;1.80;;
7473;SDS011;3778;42.572;23.426;2022-09-27T13:23:08;3.40;;;1.77;;
7473;SDS011;3778;42.572;23.426;2022-09-27T13:26:42;2.27;;;1.80;;
7473;SDS011;3778;42.572;23.426;2022-09-27T13:29:25;1.83;;;1.70;;
7473;SDS011;3778;42.572;23.426;2022-09-27T13:32:07;4.67;;;1.77;;
7473;SDS011;3778;42.572;23.426;2022-09-27T13:34:40;3.57;;;1.70;;
7473;SDS011;3778;42.572;23.426;2022-09-27T13:40:19;2.27;;;1.57;;
7473;SDS011;3778;42.572;23.426;2022-09-27T13:42:51;3.03;;;1.63;;
7473;SDS011;3778;42.572;23.426;2022-09-27T13:45:27;1.43;;;1.33;;
7473;SDS011;3778;42.572;23.426;2022-09-27T13:48:00;1.77;;;1.67;;
7473;SDS011;3778;42.572;23.426;2022-09-27T13:50:38;1.73;;;1.63;;
7473;SDS011;3778;42.572;23.426;2022-09-27T13:53:16;2.10;;;1.50;;
7473;SDS011;3778;42.572;23.426;2022-09-27T13:55:50;1.80;;;1.50;;
7473;SDS011;3778;42.572;23.426;2022-09-27T13:58:31;1.90;;;1.60;;
7473;SDS011;3778;42.572;23.426;2022-09-27T14:01:12;4.33;;;1.70;;
7473;SDS011;3778;42.572;23.426;2022-09-27T14:03:52;1.10;;;1.10;;
7473;SDS011;3778;42.572;23.426;2022-09-27T14:06:23;1.77;;;1.67;;
7473;SDS011;3778;42.572;23.426;2022-09-27T14:08:54;1.98;;;1.50;;
7473;SDS011;3778;42.572;23.426;2022-09-27T14:11:24;3.13;;;1.50;;
7473;SDS011;3778;42.572;23.426;2022-09-27T14:13:55;1.80;;;1.40;;
7473;SDS011;3778;42.572;23.426;2022-09-27T14:16:23;1.60;;;1.40;;
7473;SDS011;3778;42.572;23.426;2022-09-27T14:18:57;1.40;;;1.30;;
7473;SDS011;3778;42.572;23.426;2022-09-27T14:21:26;2.03;;;1.47;;
7473;SDS011;3778;42.572;23.426;2022-09-27T14:27:04;1.97;;;1.77;;
7473;SDS011;3778;42.572;23.426;2022-09-27T14:29:38;2.23;;;1.50;;
7473;SDS011;3778;42.572;23.426;2022-09-27T14:32:08;2.07;;;1.40;;
7473;SDS011;3778;42.572;23.426;2022-09-27T14:34:38;1.40;;;1.30;;
7473;SDS011;3778;42.572;23.426;2022-09-27T14:37:12;2.55;;;1.50;;
7473;SDS011;3778;42.572;23.426;2022-09-27T14:39:54;7.30;;;1.73;;
7473;SDS011;3778;42.572;23.426;2022-09-27T14:42:24;3.20;;;1.70;;
7473;SDS011;3778;42.572;23.426;2022-09-27T14:44:53;2.57;;;1.53;;
7473;SDS011;3778;42.572;23.426;2022-09-27T14:47:26;2.10;;;1.80;;
7473;SDS011;3778;42.572;23.426;2022-09-27T14:49:56;1.50;;;1.40;;
7473;SDS011;3778;42.572;23.426;2022-09-27T14:52:25;1.83;;;1.50;;
7473;SDS011;3778;42.572;23.426;2022-09-27T14:54:55;2.67;;;1.60;;
7473;SDS011;3778;42.572;23.426;2022-09-27T14:57:26;1.80;;;1.63;;
7473;SDS011;3778;42.572;23.426;2022-09-27T14:59:57;2.07;;;1.87;;
7473;SDS011;3778;42.572;23.426;2022-09-27T15:02:28;2.80;;;1.73;;
7473;SDS011;3778;42.572;23.426;2022-09-27T15:04:58;2.00;;;1.80;;
7473;SDS011;3778;42.572;23.426;2022-09-27T15:07:25;2.27;;;2.07;;
7473;SDS011;3778;42.572;23.426;2022-09-27T15:09:52;3.13;;;1.90;;
7473;SDS011;3778;42.572;23.426;2022-09-27T15:12:23;2.90;;;2.30;;
7473;SDS011;3778;42.572;23.426;2022-09-27T15:14:52;3.13;;;1.80;;
7473;SDS011;3778;42.572;23.426;2022-09-27T15:17:23;2.33;;;1.80;;
7473;SDS011;3778;42.572;23.426;2022-09-27T15:20:01;1.83;;;1.53;;
7473;SDS011;3778;42.572;23.426;2022-09-27T15:22:44;1.90;;;1.70;;
7473;SDS011;3778;42.572;23.426;2022-09-27T15:25:16;3.07;;;2.10;;
7473;SDS011;3778;42.572;23.426;2022-09-27T15:27:45;1.90;;;1.80;;
7473;SDS011;3778;42.572;23.426;2022-09-27T15:30:18;3.53;;;1.80;;
7473;SDS011;3778;42.572;23.426;2022-09-27T15:32:47;6.00;;;2.97;;
7473;SDS011;3778;42.572;23.426;2022-09-27T15:35:19;3.97;;;3.23;;
7473;SDS011;3778;42.572;23.426;2022-09-27T15:37:49;3.13;;;2.60;;
7473;SDS011;3778;42.572;23.426;2022-09-27T15:43:18;2.93;;;2.00;;
7473;SDS011;3778;42.572;23.426;2022-09-27T15:45:47;1.73;;;1.60;;
7473;SDS011;3778;42.572;23.426;2022-09-27T15:48:16;1.80;;;1.47;;
7473;SDS011;3778;42.572;23.426;2022-09-27T15:50:45;5.40;;;1.83;;
7473;SDS011;3778;42.572;23.426;2022-09-27T15:53:38;6.63;;;1.53;;
7473;SDS011;3778;42.572;23.426;2022-09-27T15:56:09;2.43;;;1.47;;
7473;SDS011;3778;42.572;23.426;2022-09-27T15:58:39;2.93;;;1.30;;
7473;SDS011;3778;42.572;23.426;2022-09-27T16:01:06;1.50;;;1.40;;
7473;SDS011;3778;42.572;23.426;2022-09-27T16:03:40;3.33;;;1.37;;
7473;SDS011;3778;42.572;23.426;2022-09-27T16:06:10;1.33;;;1.20;;
7473;SDS011;3778;42.572;23.426;2022-09-27T16:08:38;1.30;;;1.20;;
7473;SDS011;3778;42.572;23.426;2022-09-27T16:11:08;2.83;;;1.63;;
7473;SDS011;3778;42.572;23.426;2022-09-27T16:13:39;4.30;;;1.70;;